Time;durP1;ratioP1;P1;durP2;ratioP2;P2;SDS_P1;SDS_P2;PMS_P1;PMS_P2;Temp;Humidity;BMP_temperature;BMP_pressure;BME280_temperature;BME280_humidity;BME280_pressure;Samples;Min_cycle;Max_cycle;Signal;HPM_P1;HPM_P2
2022/04/22 00:00:53;;;;;;;6.70;5.97;;;11.80;1.00;;;;;;5014615;28;20278;-71
2022/04/22 00:03:20;;;;;;;6.93;6.23;;;11.80;1.00;;;;;;5013080;28;20228;-75
2022/04/22 00:05:47;;;;;;;6.90;5.80;;;11.70;1.00;;;;;;5014152;28;20208;-74
2022/04/22 00:08:14;;;;;;;6.07;5.50;;;11.80;1.00;;;;;;5014234;28;20259;-74
2022/04/22 00:11:29;;;;;;;11.57;6.97;;;11.80;1.00;;;;;;5014463;28;20203;-75
2022/04/22 00:13:28;;;;;;;5.87;5.27;;;11.80;1.00;;;;;;5013910;28;20307;-74
2022/04/22 00:15:56;;;;;;;6.33;5.10;;;11.80;1.00;;;;;;5014150;28;20204;-75
2022/04/22 00:18:23;;;;;;;8.13;6.50;;;11.90;1.00;;;;;;5014203;28;20678;-75
2022/04/22 00:20:50;;;;;;;6.73;5.20;;;11.90;1.00;;;;;;5013691;28;20214;-75
2022/04/22 00:23:17;;;;;;;8.07;5.67;;;11.90;1.00;;;;;;5013812;28;20294;-75
2022/04/22 00:25:44;;;;;;;6.17;5.57;;;11.80;1.00;;;;;;5014319;28;20204;-75
2022/04/22 00:28:11;;;;;;;8.63;6.23;;;11.80;1.00;;;;;;5013680;28;20200;-75
2022/04/22 00:30:38;;;;;;;9.00;6.90;;;11.70;1.00;;;;;;5013994;28;20297;-74
2022/04/22 00:33:07;;;;;;;7.20;6.50;;;11.80;1.00;;;;;;5013903;28;20362;-74
2022/04/22 00:35:34;;;;;;;8.60;7.38;;;11.80;1.00;;;;;;5014119;28;20274;-74
2022/04/22 00:38:01;;;;;;;7.97;6.90;;;11.80;1.00;;;;;;5014127;28;20258;-74
2022/04/22 00:40:28;;;;;;;8.27;7.23;;;11.80;1.00;;;;;;5009831;28;20480;-74
2022/04/22 00:42:55;;;;;;;7.93;7.13;;;11.80;1.00;;;;;;4994076;28;20209;-74
2022/04/22 00:45:22;;;;;;;7.87;7.17;;;11.80;1.00;;;;;;4993749;28;20208;-74
2022/04/22 00:47:49;;;;;;;10.07;6.90;;;11.70;1.00;;;;;;4994331;28;20263;-75
2022/04/22 00:50:17;;;;;;;8.57;7.00;;;11.70;1.00;;;;;;4992316;28;20205;-75
2022/04/22 00:52:45;;;;;;;8.70;7.70;;;11.70;1.00;;;;;;4994279;28;20269;-73
2022/04/22 00:55:12;;;;;;;15.73;7.17;;;11.80;1.00;;;;;;4993610;28;20255;-75
2022/04/22 00:57:39;;;;;;;7.63;6.47;;;11.90;1.00;;;;;;4993984;28;20209;-75
2022/04/22 01:00:07;;;;;;;8.27;7.13;;;11.90;1.00;;;;;;4994173;28;20267;-73
2022/04/22 01:02:34;;;;;;;10.60;7.83;;;11.80;1.00;;;;;;5000705;28;20202;-74
2022/04/22 01:10:31;;;;;;;10.90;7.15;;;11.80;1.00;;;;;;5013059;28;20207;-74
2022/04/22 01:12:58;;;;;;;10.77;8.30;;;11.80;1.00;;;;;;5013206;28;20271;-74
2022/04/22 01:15:25;;;;;;;8.33;7.03;;;11.90;1.00;;;;;;5012879;28;20216;-75
2022/04/22 01:17:52;;;;;;;12.90;9.53;;;11.80;1.00;;;;;;5012977;28;20208;-75
2022/04/22 01:20:19;;;;;;;13.27;9.00;;;11.70;1.00;;;;;;5012278;28;20208;-76
2022/04/22 01:22:47;;;;;;;11.20;8.93;;;11.80;1.00;;;;;;5013371;28;20205;-73
2022/04/22 01:25:14;;;;;;;10.20;8.90;;;11.80;1.00;;;;;;5012652;28;20266;-73
2022/04/22 01:27:42;;;;;;;11.37;7.97;;;11.80;1.00;;;;;;5013011;28;20251;-75
2022/04/22 01:30:10;;;;;;;11.40;10.20;;;11.80;1.00;;;;;;5012582;28;20204;-74
2022/04/22 01:32:37;;;;;;;9.47;8.40;;;11.80;1.00;;;;;;5012047;28;20197;-74
2022/04/22 01:35:04;;;;;;;11.23;8.23;;;11.80;1.00;;;;;;5013060;28;20215;-74
2022/04/22 01:37:32;;;;;;;12.73;8.75;;;11.80;1.00;;;;;;5012274;28;20668;-74
2022/04/22 01:40:00;;;;;;;10.35;8.32;;;11.80;1.00;;;;;;5013036;28;20208;-77
2022/04/22 01:42:27;;;;;;;9.93;8.93;;;11.80;1.00;;;;;;5012270;28;20710;-75
2022/04/22 01:44:54;;;;;;;11.17;8.47;;;11.80;1.00;;;;;;5012499;28;20752;-74
2022/04/22 01:47:21;;;;;;;9.32;8.45;;;11.70;1.00;;;;;;5011937;28;20209;-75
2022/04/22 01:49:49;;;;;;;13.20;10.13;;;11.70;1.00;;;;;;5012506;28;20688;-78
2022/04/22 01:52:16;;;;;;;10.67;8.20;;;11.70;1.00;;;;;;5012239;28;20295;-74
2022/04/22 01:54:43;;;;;;;10.40;8.20;;;11.70;1.00;;;;;;5012456;28;20204;-75
2022/04/22 01:57:11;;;;;;;8.43;7.63;;;11.70;1.00;;;;;;5011942;28;20200;-75
2022/04/22 01:59:38;;;;;;;8.53;7.73;;;11.70;1.00;;;;;;5012470;28;20606;-74
2022/04/22 02:02:06;;;;;;;8.30;6.70;;;11.70;1.00;;;;;;5011431;28;20212;-75
2022/04/22 02:04:33;;;;;;;7.73;6.37;;;11.60;1.00;;;;;;5012594;28;20243;-74
2022/04/22 02:07:00;;;;;;;9.30;7.90;;;11.60;1.00;;;;;;5012380;28;20204;-75
2022/04/22 02:09:27;;;;;;;9.37;7.07;;;11.50;99.90;;;;;;5011939;28;20208;-75
2022/04/22 02:11:54;;;;;;;8.20;6.90;;;11.50;1.00;;;;;;5012401;28;20266;-75
2022/04/22 02:14:23;;;;;;;9.20;7.30;;;11.60;1.00;;;;;;5011803;28;20208;-75
2022/04/22 02:16:50;;;;;;;9.13;7.33;;;11.60;1.00;;;;;;5011837;28;20267;-75
2022/04/22 02:19:17;;;;;;;11.77;8.07;;;11.60;1.00;;;;;;5011106;28;20211;-75
2022/04/22 02:21:44;;;;;;;9.20;8.23;;;11.50;1.00;;;;;;5011365;28;20204;-73
2022/04/22 02:24:12;;;;;;;9.80;7.67;;;11.50;1.00;;;;;;5011570;28;20238;-75
2022/04/22 02:29:20;;;;;;;9.73;7.77;;;11.60;1.00;;;;;;5010671;28;20204;-75
2022/04/22 02:31:49;;;;;;;7.97;7.17;;;11.70;1.00;;;;;;5011545;28;20212;-74
2022/04/22 02:34:17;;;;;;;12.03;8.07;;;11.60;99.90;;;;;;5011594;28;20204;-75
2022/04/22 02:36:44;;;;;;;9.33;7.27;;;11.60;99.90;;;;;;5011850;28;20216;-76
2022/04/22 02:39:11;;;;;;;8.07;7.27;;;11.60;99.90;;;;;;5011276;28;20624;-76
2022/04/22 02:47:08;;;;;;;9.70;8.70;;;11.60;99.90;;;;;;5011778;28;20223;-75
2022/04/22 02:49:35;;;;;;;8.47;7.23;;;11.50;99.90;;;;;;5011975;28;20204;-76
2022/04/22 02:52:02;;;;;;;11.40;8.00;;;11.50;99.90;;;;;;5011059;28;20625;-77
2022/04/22 02:54:30;;;;;;;11.80;7.27;;;11.50;99.90;;;;;;5011273;28;20212;-77
2022/04/22 02:56:58;;;;;;;9.37;8.23;;;11.50;99.90;;;;;;5005201;28;20228;-76
2022/04/22 02:59:25;;;;;;;8.33;7.43;;;11.50;99.90;;;;;;4991587;28;20676;-78
2022/04/22 03:01:53;;;;;;;9.20;7.17;;;11.50;99.90;;;;;;4991764;28;20256;-78
2022/04/22 03:04:21;;;;;;;7.63;6.80;;;11.40;99.90;;;;;;4991134;28;20713;-76
2022/04/22 03:06:48;;;;;;;9.37;6.93;;;11.30;99.90;;;;;;4991661;28;20295;-78
2022/04/22 03:09:15;;;;;;;9.33;7.00;;;11.30;99.90;;;;;;4991288;28;20282;-77
2022/04/22 03:11:42;;;;;;;8.63;6.90;;;11.30;99.90;;;;;;4991894;28;20570;-77
2022/04/22 03:14:09;;;;;;;7.53;6.80;;;11.30;99.90;;;;;;4990271;28;20643;-76
2022/04/22 03:16:36;;;;;;;8.27;7.13;;;11.40;99.90;;;;;;4991610;28;20209;-75
2022/04/22 03:19:03;;;;;;;9.03;7.50;;;11.30;99.90;;;;;;4995985;28;20200;-77
2022/04/22 03:21:32;;;;;;;7.83;7.03;;;11.30;99.90;;;;;;5010760;28;20258;-78
2022/04/22 03:23:59;;;;;;;6.93;6.23;;;11.20;99.90;;;;;;5011303;28;20211;-78
2022/04/22 03:26:26;;;;;;;7.17;6.47;;;11.30;99.90;;;;;;5010643;28;20207;-77
2022/04/22 03:28:53;;;;;;;7.30;5.97;;;11.20;99.90;;;;;;5011065;28;20204;-78
2022/04/22 03:31:20;;;;;;;7.67;6.73;;;11.20;99.90;;;;;;5010669;28;20675;-78
2022/04/22 03:33:47;;;;;;;7.53;6.73;;;11.20;99.90;;;;;;5011127;28;20626;-78
2022/04/22 03:36:14;;;;;;;7.50;6.20;;;11.20;99.90;;;;;;5011037;28;20208;-77
2022/04/22 03:38:43;;;;;;;9.33;7.13;;;11.20;99.90;;;;;;5011245;28;20204;-77
2022/04/22 03:41:11;;;;;;;9.67;6.30;;;11.20;99.90;;;;;;5010724;28;20254;-75
2022/04/22 03:43:39;;;;;;;8.17;7.37;;;11.20;99.90;;;;;;5010620;28;20767;-75
2022/04/22 03:46:06;;;;;;;8.50;7.60;;;11.10;99.90;;;;;;5010767;28;20262;-76
2022/04/22 03:48:33;;;;;;;8.90;7.00;;;11.20;99.90;;;;;;5010725;28;20266;-76
2022/04/22 03:51:00;;;;;;;11.07;7.23;;;11.10;99.90;;;;;;5007823;28;20262;-76
2022/04/22 03:53:27;;;;;;;7.53;6.77;;;11.10;99.90;;;;;;5010428;28;20251;-75
2022/04/22 03:58:10;;;;;;;8.43;6.33;;;11.10;99.90;;;;;;5010668;28;20208;-73
2022/04/22 03:58:41;;;;;;;9.10;6.30;;;11.10;99.90;;;;;;5010494;28;20283;-74
2022/04/22 04:01:08;;;;;;;7.60;6.10;;;11.10;99.90;;;;;;5010334;28;20642;-74
2022/04/22 04:03:35;;;;;;;8.83;6.83;;;11.10;99.90;;;;;;5010857;28;20255;-74
2022/04/22 04:06:02;;;;;;;8.17;6.13;;;11.20;99.90;;;;;;5010785;28;20290;-74
2022/04/22 04:08:29;;;;;;;8.27;6.13;;;11.20;99.90;;;;;;5010197;28;20204;-76
2022/04/22 04:16:26;;;;;;;7.97;6.00;;;11.10;99.90;;;;;;5010256;28;20453;-75
2022/04/22 04:23:14;;;;;;;6.83;6.13;;;11.30;99.90;;;;;;5010123;28;20203;-76
2022/04/22 04:24:24;;;;;;;6.17;5.53;;;11.30;99.90;;;;;;4980879;28;20734;-76
2022/04/22 04:26:53;;;;;;;7.40;6.40;;;11.30;99.90;;;;;;5013951;28;20262;-74
2022/04/22 04:29:20;;;;;;;8.00;6.15;;;11.30;99.90;;;;;;5013699;28;20660;-75
2022/04/22 04:31:48;;;;;;;6.97;5.47;;;11.30;99.90;;;;;;5013977;28;20239;-78
2022/04/22 04:34:15;;;;;;;8.73;5.60;;;11.40;99.90;;;;;;5013598;28;20698;-78
2022/04/22 04:36:42;;;;;;;6.67;5.93;;;11.40;99.90;;;;;;5014211;28;20247;-80
2022/04/22 04:39:09;;;;;;;5.37;4.83;;;11.40;99.90;;;;;;5013848;28;20204;-75
2022/04/22 04:41:36;;;;;;;7.97;6.17;;;11.40;99.90;;;;;;5013801;28;20287;-75
2022/04/22 04:44:05;;;;;;;9.77;6.37;;;11.40;99.90;;;;;;5013997;28;20634;-79
2022/04/22 04:46:32;;;;;;;7.97;6.00;;;11.40;99.90;;;;;;5013211;28;20255;-78
2022/04/22 04:49:01;;;;;;;7.23;5.27;;;11.40;99.90;;;;;;5013862;28;20682;-79
2022/04/22 04:51:29;;;;;;;9.70;6.90;;;11.40;99.90;;;;;;5013213;28;20208;-78
2022/04/22 04:53:56;;;;;;;5.80;5.13;;;11.40;99.90;;;;;;5013782;28;20244;-79
2022/04/22 04:56:23;;;;;;;6.73;6.07;;;11.30;99.90;;;;;;5012978;28;20254;-79
2022/04/22 04:58:50;;;;;;;8.10;5.90;;;11.30;99.90;;;;;;5013565;28;20742;-79
2022/04/22 05:01:18;;;;;;;5.90;4.97;;;11.40;99.90;;;;;;5012897;28;20212;-78
2022/04/22 05:03:45;;;;;;;7.57;6.07;;;11.40;99.90;;;;;;5013563;28;20208;-79
2022/04/22 05:06:12;;;;;;;6.57;5.40;;;11.30;99.90;;;;;;5012617;28;20732;-78
2022/04/22 05:08:39;;;;;;;5.97;5.37;;;11.30;99.90;;;;;;5013502;28;20212;-76
2022/04/22 05:11:06;;;;;;;6.07;5.33;;;11.20;99.90;;;;;;5013263;28;20216;-76
2022/04/22 05:13:33;;;;;;;7.03;5.57;;;11.30;99.90;;;;;;5013415;28;20209;-77
2022/04/22 05:16:00;;;;;;;8.40;5.53;;;11.30;99.90;;;;;;5013263;28;20631;-78
2022/04/22 05:18:29;;;;;;;6.97;5.77;;;11.30;99.90;;;;;;5012775;28;20631;-78
2022/04/22 05:20:57;;;;;;;6.30;5.40;;;11.40;99.90;;;;;;5012803;28;20628;-78
2022/04/22 05:23:24;;;;;;;7.07;5.10;;;11.40;99.90;;;;;;5012826;28;20643;-78
2022/04/22 05:25:51;;;;;;;5.60;5.07;;;11.40;99.90;;;;;;5012826;28;20239;-78
2022/04/22 05:28:18;;;;;;;8.97;5.33;;;11.40;99.90;;;;;;5012592;28;20201;-77
2022/04/22 05:33:30;;;;;;;6.80;4.97;;;11.30;99.90;;;;;;5012720;28;20211;-77
2022/04/22 05:35:58;;;;;;;7.13;4.67;;;11.30;99.90;;;;;;5012215;28;20259;-77
2022/04/22 05:38:25;;;;;;;4.63;4.13;;;11.30;99.90;;;;;;5012590;28;20287;-77
2022/04/22 05:40:52;;;;;;;5.53;4.43;;;11.40;99.90;;;;;;5012415;28;20208;-77
2022/04/22 05:43:19;;;;;;;6.07;5.17;;;11.40;99.90;;;;;;5012351;28;20262;-77
2022/04/22 05:45:46;;;;;;;7.07;4.97;;;11.40;99.90;;;;;;5012572;28;20577;-79
2022/04/22 05:48:13;;;;;;;5.20;4.30;;;11.30;99.90;;;;;;5012552;28;20596;-79
2022/04/22 05:50:42;;;;;;;5.90;4.60;;;11.30;99.90;;;;;;5011756;28;20205;-78
2022/04/22 05:53:09;;;;;;;4.43;3.83;;;11.30;99.90;;;;;;5011993;28;20204;-78
2022/04/22 05:55:36;;;;;;;4.57;3.93;;;11.30;99.90;;;;;;5012880;28;20208;-78
2022/04/22 05:58:04;;;;;;;4.67;4.10;;;11.30;99.90;;;;;;5012949;28;20263;-77
2022/04/22 06:00:32;;;;;;;3.83;3.53;;;11.40;99.90;;;;;;5012187;28;20655;-77
2022/04/22 06:03:00;;;;;;;6.27;4.30;;;11.30;99.90;;;;;;5012406;28;20287;-79
2022/04/22 06:05:27;;;;;;;5.33;3.60;;;11.30;99.90;;;;;;5011747;28;20723;-78
2022/04/22 06:10:41;;;;;;;5.37;4.87;;;11.40;99.90;;;;;;5012240;28;20207;-77
2022/04/22 06:13:09;;;;;;;20.50;14.50;;;11.40;99.90;;;;;;5011752;28;20212;-77
2022/04/22 06:15:36;;;;;;;6.00;4.77;;;11.40;99.90;;;;;;5012358;28;20278;-77
2022/04/22 06:18:03;;;;;;;4.33;3.93;;;11.40;99.90;;;;;;5012416;28;20262;-77
2022/04/22 06:20:30;;;;;;;3.63;3.27;;;11.40;99.90;;;;;;5011306;28;20730;-77
2022/04/22 06:22:59;;;;;;;5.03;4.23;;;11.50;99.90;;;;;;5012239;28;20204;-77
2022/04/22 06:25:28;;;;;;;5.50;3.83;;;11.50;99.90;;;;;;5011643;28;20331;-77
2022/04/22 06:27:55;;;;;;;4.40;3.77;;;11.70;99.90;;;;;;5011637;28;20208;-78
2022/04/22 06:30:23;;;;;;;6.13;5.53;;;12.00;99.90;;;;;;5011456;28;20215;-78
2022/04/22 06:32:52;;;;;;;10.07;4.83;;;12.30;99.90;;;;;;5011784;28;20211;-81
2022/04/22 06:35:21;;;;;;;6.82;4.88;;;12.30;99.90;;;;;;5011728;28;20274;-78
2022/04/22 06:37:50;;;;;;;3.53;3.22;;;12.30;99.90;;;;;;5011124;28;20234;-79
2022/04/22 06:45:52;;;;;;;4.50;4.00;;;12.00;99.90;;;;;;5011449;28;20235;-76
2022/04/22 06:48:21;;;;;;;6.73;4.20;;;12.00;99.90;;;;;;5010374;28;20668;-77
2022/04/22 06:50:50;;;;;;;5.83;4.77;;;11.80;99.90;;;;;;5009173;28;20274;-76
2022/04/22 06:53:19;;;;;;;5.63;3.83;;;11.80;99.90;;;;;;5010741;28;20207;-77
2022/04/22 06:55:48;;;;;;;5.05;3.47;;;11.80;99.90;;;;;;5011490;28;20208;-76
2022/04/22 06:58:17;;;;;;;4.57;4.18;;;11.80;99.90;;;;;;5010674;28;20679;-76
2022/04/22 07:00:46;;;;;;;7.03;4.80;;;11.90;99.90;;;;;;5011542;28;20209;-76
2022/04/22 07:03:15;;;;;;;4.83;4.23;;;12.00;99.90;;;;;;5010844;28;20646;-77
2022/04/22 07:05:44;;;;;;;5.95;3.92;;;12.00;99.90;;;;;;5010957;28;20333;-76
2022/04/22 07:08:14;;;;;;;7.47;4.20;;;11.90;99.90;;;;;;5010825;28;20204;-77
2022/04/22 07:10:42;;;;;;;3.90;3.50;;;12.00;99.90;;;;;;5011301;28;20204;-77
2022/04/22 07:13:12;;;;;;;5.27;4.20;;;12.00;99.90;;;;;;5010224;28;20259;-76
2022/04/22 07:15:40;;;;;;;7.77;5.23;;;12.00;99.90;;;;;;5011021;28;20212;-77
2022/04/22 07:18:09;;;;;;;6.17;5.47;;;12.00;99.90;;;;;;5011115;28;20205;-76
2022/04/22 07:20:38;;;;;;;5.60;5.10;;;12.00;99.90;;;;;;4994125;28;20208;-76
2022/04/22 07:23:05;;;;;;;7.55;5.32;;;12.00;99.90;;;;;;4997724;28;20208;-77
2022/04/22 07:25:33;;;;;;;6.03;4.50;;;12.00;99.90;;;;;;5002445;28;20233;-78
2022/04/22 07:28:01;;;;;;;5.35;4.82;;;12.20;99.90;;;;;;5008081;28;20627;-76
2022/04/22 07:30:29;;;;;;;5.40;4.13;;;12.30;99.90;;;;;;5005995;28;20881;-78
2022/04/22 07:32:57;;;;;;;5.83;4.47;;;12.30;99.90;;;;;;5006531;28;20208;-77
2022/04/22 07:35:24;;;;;;;7.82;5.05;;;12.30;99.90;;;;;;5008123;28;20282;-76
2022/04/22 07:37:52;;;;;;;5.45;4.78;;;12.40;99.90;;;;;;5006894;28;20547;-75
2022/04/22 07:40:22;;;;;;;5.13;4.68;;;12.60;99.90;;;;;;5009952;28;20270;-75
2022/04/22 07:48:23;;;;;;;7.57;4.57;;;12.70;99.90;;;;;;5004660;28;20218;-78
2022/04/22 07:50:51;;;;;;;7.38;5.72;;;12.60;99.90;;;;;;5010385;28;20204;-79
2022/04/22 07:53:18;;;;;;;10.88;6.65;;;12.70;99.90;;;;;;4996816;28;20221;-77
2022/04/22 07:55:46;;;;;;;9.65;8.68;;;12.70;99.90;;;;;;4997217;28;20205;-78
2022/04/22 07:58:14;;;;;;;15.70;13.73;;;12.90;99.90;;;;;;5007017;28;20568;-79
2022/04/22 08:00:44;;;;;;;14.25;11.95;;;13.00;99.90;;;;;;5006475;28;20204;-78
2022/04/22 08:03:12;;;;;;;10.75;8.18;;;12.90;99.90;;;;;;5003877;28;20688;-76
2022/04/22 08:05:39;;;;;;;9.07;5.75;;;12.80;99.90;;;;;;5009233;28;20322;-76
2022/04/22 08:08:07;;;;;;;7.88;5.90;;;12.70;99.90;;;;;;5001720;28;20212;-75
2022/04/22 08:10:34;;;;;;;6.40;5.35;;;12.80;99.90;;;;;;5006297;28;20631;-75
2022/04/22 08:13:02;;;;;;;6.35;5.50;;;12.80;99.90;;;;;;5005416;28;20205;-75
2022/04/22 08:15:30;;;;;;;5.07;4.57;;;13.00;99.90;;;;;;5011268;28;20295;-75
2022/04/22 08:17:58;;;;;;;5.70;4.78;;;13.20;99.90;;;;;;5015701;28;20208;-81
2022/04/22 08:20:25;;;;;;;6.22;5.65;;;13.30;99.90;;;;;;5006570;28;20739;-79
2022/04/22 08:22:52;;;;;;;6.35;5.43;;;13.20;99.90;;;;;;5010324;28;20723;-84
2022/04/22 08:25:19;;;;;;;7.05;5.55;;;13.20;99.90;;;;;;5004270;28;20684;-83
2022/04/22 08:27:47;;;;;;;4.50;4.05;;;13.30;99.90;;;;;;5009889;28;20212;-83
2022/04/22 08:30:14;;;;;;;4.80;4.40;;;13.40;99.90;;;;;;5013942;28;20208;-81
2022/04/22 08:32:41;;;;;;;6.40;4.53;;;13.60;99.90;;;;;;5012764;28;20219;-76
2022/04/22 08:35:11;;;;;;;5.53;4.57;;;13.60;99.90;;;;;;5012470;28;20757;-76
2022/04/22 08:37:38;;;;;;;5.93;3.63;;;13.70;99.90;;;;;;5009422;28;20215;-78
2022/04/22 08:40:07;;;;;;;6.95;4.82;;;13.90;99.90;;;;;;5013047;28;20211;-75
2022/04/22 08:42:35;;;;;;;6.13;5.53;;;14.00;99.90;;;;;;5013570;28;20212;-73
2022/04/22 08:45:03;;;;;;;6.45;5.75;;;14.00;99.90;;;;;;5014254;28;20200;-75
2022/04/22 08:50:16;;;;;;;5.75;5.22;;;14.30;99.90;;;;;;5004932;28;20258;-77
2022/04/22 08:52:44;;;;;;;5.68;5.07;;;14.40;99.90;;;;;;5007026;28;20738;-76
2022/04/22 08:55:13;;;;;;;8.40;5.18;;;14.20;99.90;;;;;;5013282;28;20263;-77
2022/04/22 08:57:42;;;;;;;7.05;4.85;;;14.30;99.90;;;;;;5012675;28;20262;-77
2022/04/22 09:00:10;;;;;;;7.75;5.60;;;14.50;99.90;;;;;;5013070;28;20295;-76
2022/04/22 09:02:37;;;;;;;6.65;5.38;;;14.50;99.90;;;;;;5013090;28;20238;-76
2022/04/22 09:05:06;;;;;;;7.00;5.63;;;14.80;99.90;;;;;;5013636;28;20216;-79
2022/04/22 09:07:35;;;;;;;5.95;5.38;;;14.80;99.90;;;;;;5013921;28;20340;-77
2022/04/22 09:10:02;;;;;;;7.05;5.57;;;14.90;99.90;;;;;;5008530;28;20208;-74
2022/04/22 09:12:29;;;;;;;8.18;6.00;;;15.00;99.90;;;;;;5001103;28;20691;-80
2022/04/22 09:14:57;;;;;;;7.55;6.47;;;14.70;99.90;;;;;;5013140;28;20274;-80
2022/04/22 09:17:26;;;;;;;10.07;6.68;;;14.70;99.90;;;;;;5012610;28;20216;-74
2022/04/22 09:19:53;;;;;;;6.75;6.03;;;14.70;99.90;;;;;;5013322;28;20272;-82
2022/04/22 09:22:22;;;;;;;10.82;6.97;;;14.50;99.90;;;;;;5012982;28;20204;-83
2022/04/22 09:24:52;;;;;;;7.60;5.80;;;14.50;99.90;;;;;;5013715;28;20629;-76
2022/04/22 09:27:19;;;;;;;8.30;7.47;;;14.50;99.90;;;;;;5013045;28;20294;-74
2022/04/22 09:29:54;;;;;;;10.30;6.95;;;14.60;99.90;;;;;;5013209;28;20204;-74
2022/04/22 09:32:25;;;;;;;7.70;5.60;;;14.80;99.90;;;;;;5012648;28;20204;-75
2022/04/22 09:34:55;;;;;;;15.30;9.23;;;15.20;99.90;;;;;;5013552;28;20274;-84
2022/04/22 09:42:56;;;;;;;8.52;6.50;;;15.00;99.90;;;;;;4995289;28;20688;-82
2022/04/22 09:45:36;;;;;;;6.45;5.85;;;15.20;99.90;;;;;;5009830;28;20267;-86
2022/04/22 09:48:11;;;;;;;8.48;6.47;;;15.30;99.90;;;;;;5003783;28;20212;-77
2022/04/22 09:50:44;;;;;;;9.82;7.85;;;15.50;99.90;;;;;;5013123;28;20258;-87
2022/04/22 09:53:12;;;;;;;9.35;7.35;;;15.30;99.90;;;;;;5012703;28;20738;-84
2022/04/22 09:55:53;;;;;;;8.35;7.07;;;14.90;99.90;;;;;;5013090;28;20286;-79
2022/04/22 09:58:24;;;;;;;10.40;6.53;;;15.20;99.90;;;;;;5012590;28;20211;-78
2022/04/22 10:01:02;;;;;;;11.18;7.03;;;15.30;99.90;;;;;;5003065;28;20267;-80
2022/04/22 10:03:30;;;;;;;9.23;7.40;;;15.20;99.90;;;;;;4992838;28;20219;-78
2022/04/22 10:05:58;;;;;;;11.93;7.30;;;15.50;99.90;;;;;;4992523;28;20275;-72
2022/04/22 10:08:28;;;;;;;8.95;8.15;;;15.70;99.90;;;;;;4992520;28;20296;-80
2022/04/22 10:11:00;;;;;;;8.10;7.30;;;15.70;99.90;;;;;;4992668;28;20208;-75
2022/04/22 10:13:33;;;;;;;7.50;6.75;;;15.40;99.90;;;;;;4992413;28;20743;-79
2022/04/22 10:16:00;;;;;;;9.15;8.05;;;15.90;99.90;;;;;;5006494;28;20215;-75
2022/04/22 10:18:28;;;;;;;7.35;6.35;;;15.60;99.90;;;;;;5012122;28;20651;-74
2022/04/22 10:20:55;;;;;;;8.90;7.30;;;15.70;99.90;;;;;;5012244;28;20200;-75
2022/04/22 10:23:23;;;;;;;8.50;7.70;;;15.70;99.90;;;;;;5011590;28;20208;-75
2022/04/22 10:25:50;;;;;;;8.25;7.40;;;15.40;99.90;;;;;;5011973;28;20206;-76
2022/04/22 10:28:19;;;;;;;9.40;7.32;;;15.40;99.90;;;;;;5012018;28;20208;-73
2022/04/22 10:30:48;;;;;;;6.18;5.57;;;15.20;99.90;;;;;;5011785;28;20668;-73
2022/04/22 10:33:15;;;;;;;6.43;5.65;;;15.20;99.90;;;;;;5011842;28;20578;-75
2022/04/22 10:35:43;;;;;;;6.47;5.88;;;15.40;99.90;;;;;;5011952;28;20208;-76
2022/04/22 10:38:30;;;;;;;7.07;6.05;;;15.60;99.90;;;;;;5011455;28;20255;-76
2022/04/22 10:41:00;;;;;;;8.02;6.72;;;15.60;99.90;;;;;;5011745;28;20302;-76
2022/04/22 10:43:31;;;;;;;6.43;5.05;;;15.80;99.90;;;;;;5011203;28;20575;-78
2022/04/22 10:48:44;;;;;;;8.65;7.13;;;15.90;99.90;;;;;;5012018;28;20282;-75
2022/04/22 10:51:11;;;;;;;11.25;8.48;;;15.50;99.90;;;;;;5011404;28;20211;-73
2022/04/22 10:53:49;;;;;;;7.55;6.82;;;15.50;99.90;;;;;;5011261;28;20262;-78
2022/04/22 10:56:35;;;;;;;8.02;6.07;;;15.60;99.90;;;;;;5011266;28;20208;-75
2022/04/22 10:59:32;;;;;;;9.23;6.63;;;15.80;99.90;;;;;;5011617;28;20200;-75
2022/04/22 11:02:00;;;;;;;7.28;6.47;;;15.50;99.90;;;;;;5011275;28;20295;-80
2022/04/22 11:04:29;;;;;;;7.78;6.22;;;15.60;99.90;;;;;;5010909;28;20220;-74
2022/04/22 11:06:57;;;;;;;9.10;6.63;;;16.00;99.90;;;;;;5011273;28;20675;-74
2022/04/22 11:09:26;;;;;;;7.65;6.85;;;15.80;99.90;;;;;;5011034;28;20287;-74
2022/04/22 11:11:53;;;;;;;8.02;7.22;;;16.20;99.90;;;;;;5010712;28;20204;-74
2022/04/22 11:14:23;;;;;;;7.55;6.38;;;16.50;99.90;;;;;;5010998;28;20265;-75
2022/04/22 11:16:51;;;;;;;8.95;6.45;;;16.40;99.90;;;;;;5011383;28;20219;-75
2022/04/22 11:19:28;;;;;;;6.63;6.03;;;16.50;99.90;;;;;;5011106;28;20250;-76
2022/04/22 11:21:57;;;;;;;6.63;6.03;;;16.60;99.90;;;;;;5011357;28;20247;-75
2022/04/22 11:24:26;;;;;;;7.68;6.93;;;17.10;99.90;;;;;;5010840;28;20755;-78
2022/04/22 11:27:02;;;;;;;5.63;5.13;;;17.70;99.90;;;;;;5010950;28;20593;-73
2022/04/22 11:29:29;;;;;;;10.23;6.03;;;17.20;99.90;;;;;;5010750;28;20208;-83
2022/04/22 11:32:05;;;;;;;7.25;6.30;;;16.90;99.90;;;;;;5011227;28;20208;-78
2022/04/22 11:35:09;;;;;;;10.05;6.70;;;16.80;99.90;;;;;;5010198;28;20243;-77
2022/04/22 11:37:37;;;;;;;7.10;5.82;;;16.90;99.90;;;;;;4999448;28;20207;-74
2022/04/22 11:40:08;;;;;;;7.82;6.72;;;17.00;99.90;;;;;;5011263;28;20754;-85
2022/04/22 11:42:43;;;;;;;7.07;6.38;;;16.70;99.90;;;;;;4991651;28;20284;-73
2022/04/22 11:45:12;;;;;;;6.53;5.93;;;16.40;99.90;;;;;;4991448;28;20564;-85
2022/04/22 11:47:42;;;;;;;7.35;6.65;;;16.40;99.90;;;;;;4991738;28;20252;-76
2022/04/22 11:50:10;;;;;;;8.05;7.35;;;16.80;99.90;;;;;;4991866;28;20207;-78
2022/04/22 11:52:37;;;;;;;8.13;6.22;;;16.80;99.90;;;;;;4991723;28;20251;-73
2022/04/22 11:55:06;;;;;;;59.05;26.20;;;16.80;99.90;;;;;;4991745;28;20283;-75
2022/04/22 11:57:37;;;;;;;7.95;7.05;;;17.10;99.90;;;;;;4991691;28;20215;-80
2022/04/22 12:05:42;;;;;;;7.25;6.57;;;16.40;99.90;;;;;;5010994;28;20790;-80
2022/04/22 12:08:13;;;;;;;10.98;6.75;;;16.60;99.90;;;;;;5010776;28;20240;-81
2022/04/22 12:10:40;;;;;;;9.05;7.50;;;17.10;99.90;;;;;;5010249;28;20679;-79
2022/04/22 12:13:08;;;;;;;7.15;6.45;;;17.20;99.90;;;;;;5011196;28;20583;-76
2022/04/22 12:15:39;;;;;;;7.60;6.82;;;17.30;99.90;;;;;;5011515;28;20258;-76
2022/04/22 12:18:08;;;;;;;9.02;7.60;;;17.70;99.90;;;;;;5010871;28;20219;-72
2022/04/22 12:20:36;;;;;;;9.57;7.15;;;17.70;99.90;;;;;;5011383;28;20204;-84
2022/04/22 12:23:05;;;;;;;9.55;6.43;;;17.30;99.90;;;;;;5011297;28;20211;-81
2022/04/22 12:25:32;;;;;;;7.15;6.43;;;17.50;99.90;;;;;;5011145;28;20236;-80
2022/04/22 12:28:08;;;;;;;7.80;7.00;;;17.60;99.90;;;;;;5009774;28;20240;-76
2022/04/22 12:30:36;;;;;;;7.90;7.07;;;17.20;99.90;;;;;;4994107;28;20216;-75
2022/04/22 12:33:05;;;;;;;7.85;7.13;;;17.00;99.90;;;;;;5008374;28;20214;-80
2022/04/22 12:35:33;;;;;;;7.30;6.60;;;17.00;99.90;;;;;;5005704;28;20270;-75
2022/04/22 12:38:07;;;;;;;8.07;7.30;;;17.30;99.90;;;;;;5009830;28;20208;-76
2022/04/22 12:40:48;;;;;;;7.50;6.68;;;16.90;99.90;;;;;;5008582;28;20208;-78
2022/04/22 12:43:23;;;;;;;8.57;7.65;;;16.90;99.90;;;;;;4999590;28;20212;-73
2022/04/22 12:54:15;;;;;;;7.93;7.13;;;17.00;99.90;;;;;;5012889;28;20258;-78
2022/04/22 12:56:42;;;;;;;7.20;6.18;;;17.10;99.90;;;;;;5013844;28;20216;-74
2022/04/22 12:59:09;;;;;;;7.90;7.07;;;17.50;99.90;;;;;;5011788;28;20208;-74
2022/04/22 13:01:37;;;;;;;9.60;7.80;;;17.90;99.90;;;;;;5002201;28;20572;-77
2022/04/22 13:04:06;;;;;;;8.88;7.72;;;17.90;99.90;;;;;;5013551;28;20212;-75
2022/04/22 13:06:43;;;;;;;9.75;7.07;;;17.90;99.90;;;;;;5013415;28;20267;-73
2022/04/22 13:09:11;;;;;;;7.93;7.13;;;17.90;99.90;;;;;;5013362;28;20270;-76
2022/04/22 13:11:39;;;;;;;10.25;6.95;;;17.90;99.90;;;;;;5012496;28;20204;-78
2022/04/22 13:14:07;;;;;;;6.47;5.80;;;18.00;99.90;;;;;;5013888;28;20223;-74
2022/04/22 13:16:35;;;;;;;10.07;6.03;;;18.10;99.90;;;;;;5012537;28;20208;-78
2022/04/22 13:19:02;;;;;;;9.50;6.70;;;18.10;99.90;;;;;;5007155;28;20204;-72
2022/04/22 13:21:30;;;;;;;9.75;7.20;;;17.90;99.90;;;;;;5001210;28;20220;-74
2022/04/22 13:23:58;;;;;;;7.85;6.38;;;18.20;99.90;;;;;;5009867;28;20212;-86
2022/04/22 13:26:26;;;;;;;8.93;6.82;;;17.90;99.90;;;;;;5012434;28;20209;-80
2022/04/22 13:28:54;;;;;;;7.53;6.72;;;17.90;99.90;;;;;;5012644;28;20314;-82
2022/04/22 13:31:22;;;;;;;7.47;5.65;;;17.90;99.90;;;;;;5011747;28;20204;-80
2022/04/22 13:33:49;;;;;;;8.10;7.30;;;17.80;99.90;;;;;;5010142;28;20223;-78
2022/04/22 13:36:17;;;;;;;7.32;6.63;;;18.10;99.90;;;;;;5007281;28;20266;-76
2022/04/22 13:38:44;;;;;;;5.97;5.47;;;18.20;99.90;;;;;;5006639;28;20731;-75
2022/04/22 13:41:14;;;;;;;11.43;9.07;;;18.30;99.90;;;;;;5011392;28;20223;-75
2022/04/22 13:43:43;;;;;;;6.57;5.93;;;18.60;99.90;;;;;;5011962;28;20667;-80
2022/04/22 13:54:24;;;;;;;6.55;5.95;;;19.10;99.90;;;;;;5011484;28;20215;-79
2022/04/22 13:56:53;;;;;;;10.25;6.35;;;18.50;99.90;;;;;;5009828;28;20208;-74
2022/04/22 13:59:20;;;;;;;5.90;5.03;;;18.50;99.90;;;;;;5010421;28;20697;-76
2022/04/22 14:01:47;;;;;;;6.20;5.60;;;18.70;99.90;;;;;;5008606;28;20730;-76
2022/04/22 14:04:14;;;;;;;5.60;5.20;;;18.80;99.90;;;;;;5006918;28;20643;-74
2022/04/22 14:06:42;;;;;;;6.43;5.82;;;18.90;99.90;;;;;;5003960;28;20676;-75